createdAt,value
2022-12-15T00:02:11.487Z,25.92
2022-12-15T00:05:05.040Z,24.05
2022-12-15T00:07:58.515Z,24.80
2022-12-15T00:10:49.610Z,25.88
2022-12-15T00:13:43.192Z,24.60
2022-12-15T00:16:35.704Z,25.20
2022-12-15T00:19:26.818Z,24.77
2022-12-15T00:22:17.487Z,26.05
2022-12-15T00:25:08.804Z,29.23
2022-12-15T00:27:59.890Z,30.17
2022-12-15T00:30:52.038Z,26.98
2022-12-15T00:33:44.936Z,26.25
2022-12-15T00:36:35.574Z,28.02
2022-12-15T00:39:09.064Z,24.98
2022-12-15T00:41:44.617Z,27.30
2022-12-15T00:44:20.735Z,26.48
2022-12-15T00:46:56.644Z,26.52
2022-12-15T00:49:50.748Z,27.73
2022-12-15T00:52:41.366Z,26.20
2022-12-15T00:55:31.880Z,24.85
2022-12-15T00:58:22.407Z,28.23
2022-12-15T01:01:12.980Z,25.60
2022-12-15T01:04:03.833Z,27.60
2022-12-15T01:06:55.708Z,27.30
2022-12-15T01:09:46.324Z,28.25
2022-12-15T01:12:36.972Z,26.42
2022-12-15T01:15:28.659Z,29.33
2022-12-15T01:18:22.901Z,26.42
2022-12-15T01:20:57.811Z,26.30
2022-12-15T01:23:33.976Z,27.83
2022-12-15T01:26:10.817Z,29.23
2022-12-15T01:28:44.406Z,30.83
2022-12-15T01:31:17.858Z,27.95
2022-12-15T01:33:54.833Z,28.58
2022-12-15T01:36:28.282Z,26.33
2022-12-15T01:39:20.934Z,24.90
2022-12-15T01:41:53.526Z,25.83
2022-12-15T01:44:27.027Z,27.30
2022-12-15T01:47:07.175Z,20.13
2022-12-15T01:49:47.818Z,26.67
2022-12-15T01:52:22.973Z,27.52
2022-12-15T01:54:59.841Z,28.92
2022-12-15T01:57:36.726Z,27.92
2022-12-15T02:00:11.212Z,29.75
2022-12-15T02:02:44.788Z,29.95
2022-12-15T02:05:19.173Z,28.85
2022-12-15T02:07:52.602Z,29.25
2022-12-15T02:10:33.623Z,31.23
2022-12-15T02:13:17.079Z,28.00
2022-12-15T02:15:56.387Z,28.02
2022-12-15T02:18:36.741Z,27.08
2022-12-15T02:21:16.812Z,28.02
2022-12-15T02:24:26.294Z,26.73
2022-12-15T02:27:25.529Z,28.63
2022-12-15T02:30:23.943Z,28.30
2022-12-15T02:33:08.106Z,29.70
2022-12-15T02:35:51.402Z,27.33
2022-12-15T02:38:36.009Z,27.53
2022-12-15T02:41:34.098Z,27.92
2022-12-15T02:44:13.309Z,29.42
2022-12-15T02:47:06.056Z,27.15
2022-12-15T02:49:50.642Z,28.98
2022-12-15T02:52:40.465Z,28.00
2022-12-15T02:55:20.053Z,27.60
2022-12-15T02:58:01.329Z,25.80
2022-12-15T03:00:40.964Z,25.55
2022-12-15T03:03:21.346Z,26.65
2022-12-15T03:05:55.278Z,26.85
2022-12-15T03:08:28.783Z,26.90
2022-12-15T03:11:03.514Z,26.10
2022-12-15T03:13:37.006Z,27.23
2022-12-15T03:16:10.600Z,28.52
2022-12-15T03:18:45.645Z,27.25
2022-12-15T03:21:19.168Z,27.33
2022-12-15T03:23:52.640Z,27.63
2022-12-15T03:26:26.225Z,29.80
2022-12-15T03:28:59.849Z,29.48
2022-12-15T03:31:33.517Z,27.73
2022-12-15T03:34:08.598Z,31.17
2022-12-15T03:36:42.133Z,30.17
2022-12-15T03:39:15.850Z,31.42
2022-12-15T03:41:49.559Z,30.60
2022-12-15T03:44:22.998Z,32.05
2022-12-15T03:47:02.736Z,31.90
2022-12-15T03:49:38.014Z,31.55
2022-12-15T03:52:11.582Z,30.98
2022-12-15T03:54:45.072Z,31.58
2022-12-15T03:57:18.739Z,33.30
2022-12-15T03:59:52.274Z,36.13
2022-12-15T04:02:25.919Z,34.33
2022-12-15T04:05:01.517Z,34.00
2022-12-15T04:07:34.987Z,36.17
2022-12-15T04:10:09.038Z,38.20
2022-12-15T04:12:42.663Z,39.70
2022-12-15T04:15:16.787Z,39.35
2022-12-15T04:17:57.017Z,42.50
2022-12-15T04:20:33.189Z,37.35
2022-12-15T04:23:07.969Z,37.63
2022-12-15T04:25:59.041Z,39.50
2022-12-15T04:28:49.651Z,39.67
2022-12-15T04:31:45.015Z,38.58
2022-12-15T04:34:38.241Z,33.15
2022-12-15T04:37:32.701Z,36.40
2022-12-15T04:43:14.981Z,34.33
2022-12-15T04:46:05.800Z,39.30
2022-12-15T04:48:56.617Z,41.40
2022-12-15T04:51:47.707Z,42.25
2022-12-15T04:54:40.092Z,42.28
2022-12-15T04:57:31.209Z,43.47
2022-12-15T05:00:23.609Z,42.72
2022-12-15T05:03:18.395Z,38.33
2022-12-15T05:06:09.951Z,37.03
2022-12-15T05:09:01.057Z,36.22
2022-12-15T05:11:53.497Z,32.92
2022-12-15T05:14:44.267Z,34.08
2022-12-15T05:17:41.098Z,32.92
2022-12-15T05:20:32.811Z,37.43
2022-12-15T05:23:23.628Z,40.00
2022-12-15T05:26:14.803Z,38.03
2022-12-15T05:29:07.056Z,39.45
2022-12-15T05:31:53.269Z,39.13
2022-12-15T05:34:28.353Z,39.63
2022-12-15T05:37:05.740Z,38.17
2022-12-15T05:39:39.192Z,38.80
2022-12-15T05:42:12.631Z,37.45
2022-12-15T05:44:47.463Z,40.40
2022-12-15T05:47:23.244Z,38.65
2022-12-15T05:49:56.716Z,39.13
2022-12-15T05:52:30.147Z,40.22
2022-12-15T05:55:03.845Z,36.85
2022-12-15T05:57:37.509Z,38.60
2022-12-15T06:00:15.944Z,37.05
2022-12-15T06:02:50.220Z,39.53
2022-12-15T06:05:23.826Z,39.72
2022-12-15T06:08:00.127Z,40.58
2022-12-15T06:10:33.728Z,39.20
2022-12-15T06:13:07.321Z,38.20
2022-12-15T06:15:43.689Z,36.75
2022-12-15T06:18:17.188Z,38.97
2022-12-15T06:20:58.793Z,41.55
2022-12-15T06:23:34.555Z,39.90
2022-12-15T06:26:13.254Z,43.47
2022-12-15T06:28:46.998Z,40.30
2022-12-15T06:31:23.076Z,40.35
2022-12-15T06:34:05.686Z,37.55
2022-12-15T06:36:39.761Z,40.60
2022-12-15T06:39:18.400Z,43.15
2022-12-15T06:41:51.872Z,43.15
2022-12-15T06:44:25.354Z,39.97
2022-12-15T06:47:00.266Z,41.97
2022-12-15T06:49:34.063Z,39.28
2022-12-15T06:52:07.688Z,40.67
2022-12-15T06:54:41.181Z,40.75
2022-12-15T06:57:15.140Z,41.10
2022-12-15T07:02:28.905Z,36.63
2022-12-15T07:05:02.970Z,42.22
2022-12-15T07:07:45.715Z,41.53
2022-12-15T07:10:19.343Z,40.50
2022-12-15T07:12:52.896Z,33.72
2022-12-15T07:15:26.666Z,39.83
2022-12-15T07:18:02.091Z,40.63
2022-12-15T07:20:35.665Z,38.05
2022-12-15T07:23:09.937Z,39.75
2022-12-15T07:25:43.483Z,39.20
2022-12-15T07:28:21.206Z,38.88
2022-12-15T07:31:02.810Z,36.97
2022-12-15T07:33:39.289Z,38.85
2022-12-15T07:36:13.382Z,39.35
2022-12-15T07:41:24.698Z,34.70
2022-12-15T07:43:58.780Z,38.83
2022-12-15T07:46:33.250Z,40.28
2022-12-15T07:49:08.202Z,38.63
2022-12-15T07:51:42.252Z,40.40
2022-12-15T07:56:50.345Z,39.03
2022-12-15T07:59:24.359Z,40.65
2022-12-15T08:01:59.010Z,41.45
2022-12-15T08:04:34.256Z,41.45
2022-12-15T08:07:09.186Z,41.33
2022-12-15T08:09:42.831Z,42.75
2022-12-15T08:12:17.255Z,43.92
2022-12-15T08:14:50.854Z,43.17
2022-12-15T08:17:24.675Z,44.92
2022-12-15T08:20:02.390Z,43.70
2022-12-15T08:22:39.812Z,42.80
2022-12-15T08:25:13.393Z,42.38
2022-12-15T08:27:47.165Z,44.85
2022-12-15T08:30:20.789Z,42.50
2022-12-15T08:32:54.523Z,44.60
2022-12-15T08:35:55.818Z,43.10
2022-12-15T08:38:24.715Z,43.33
2022-12-15T08:40:58.431Z,44.80
2022-12-15T08:43:32.588Z,44.65
2022-12-15T08:46:08.278Z,45.10
2022-12-15T08:48:41.817Z,44.25
2022-12-15T08:51:17.333Z,35.03
2022-12-15T08:53:51.284Z,44.10
2022-12-15T08:59:01.112Z,40.38
2022-12-15T09:01:39.548Z,44.05
2022-12-15T09:04:13.561Z,47.15
2022-12-15T09:06:50.784Z,48.05
2022-12-15T09:09:24.926Z,47.45
2022-12-15T09:11:58.646Z,46.38
2022-12-15T09:14:32.621Z,45.45
2022-12-15T09:19:40.049Z,41.95
2022-12-15T09:22:15.193Z,46.20
2022-12-15T09:24:50.195Z,45.67
2022-12-15T09:27:23.994Z,47.97
2022-12-15T09:29:57.623Z,44.83
2022-12-15T09:32:31.837Z,47.42
2022-12-15T09:35:06.123Z,48.28
2022-12-15T09:37:41.147Z,45.45
2022-12-15T09:40:15.208Z,48.40
2022-12-15T09:45:53.927Z,40.28
2022-12-15T09:48:35.750Z,40.13
2022-12-15T09:51:12.257Z,40.65
2022-12-15T09:53:56.617Z,44.47
2022-12-15T09:56:42.588Z,45.40
2022-12-15T09:59:30.451Z,44.70
2022-12-15T10:02:26.174Z,43.38
2022-12-15T10:05:06.724Z,42.08
2022-12-15T10:07:44.368Z,42.35
2022-12-15T10:10:25.497Z,40.90
2022-12-15T10:13:04.348Z,42.67
2022-12-15T10:15:45.885Z,42.97
2022-12-15T10:18:26.522Z,46.35
2022-12-15T10:21:02.756Z,44.25
2022-12-15T10:23:37.991Z,44.35
2022-12-15T10:26:21.740Z,43.78
2022-12-15T10:29:12.537Z,33.35
2022-12-15T10:31:54.192Z,39.20
2022-12-15T10:34:30.299Z,38.92
2022-12-15T10:37:04.542Z,39.38
2022-12-15T10:42:18.673Z,39.30
2022-12-15T10:44:58.107Z,38.33
2022-12-15T10:47:32.978Z,37.72
2022-12-15T10:50:24.433Z,36.45
2022-12-15T10:53:00.324Z,36.72
2022-12-15T10:55:52.597Z,39.95
2022-12-15T10:58:27.968Z,40.30
2022-12-15T11:01:10.681Z,36.70
2022-12-15T11:03:44.585Z,38.03
2022-12-15T11:06:24.166Z,36.15
2022-12-15T11:09:09.449Z,34.78
2022-12-15T11:12:06.251Z,34.05
2022-12-15T11:14:49.033Z,37.65
2022-12-15T11:17:27.012Z,38.38
2022-12-15T11:20:11.564Z,36.97
2022-12-15T11:25:41.318Z,34.80
2022-12-15T11:28:20.311Z,38.95
2022-12-15T11:31:03.606Z,35.60
2022-12-15T11:33:37.277Z,38.38
2022-12-15T11:36:21.454Z,38.35
2022-12-15T11:39:01.548Z,36.72
2022-12-15T11:41:42.658Z,37.13
2022-12-15T11:44:28.760Z,38.22
2022-12-15T11:47:13.523Z,37.42
2022-12-15T11:50:01.488Z,39.08
2022-12-15T11:52:51.745Z,37.70
2022-12-15T11:55:40.976Z,36.55
2022-12-15T11:58:37.258Z,38.58
2022-12-15T12:01:23.629Z,37.60
2022-12-15T12:04:13.467Z,37.63
2022-12-15T12:09:37.706Z,35.22
2022-12-15T12:12:20.195Z,37.85
2022-12-15T12:15:09.646Z,36.15
2022-12-15T12:17:47.549Z,37.10
2022-12-15T12:20:27.104Z,40.42
2022-12-15T12:23:05.234Z,41.15
2022-12-15T12:25:44.759Z,41.35
2022-12-15T12:28:24.285Z,40.78
2022-12-15T12:31:01.245Z,39.25
2022-12-15T12:33:43.312Z,39.08
2022-12-15T12:36:18.371Z,37.92
2022-12-15T12:38:56.253Z,39.20
2022-12-15T12:41:43.054Z,39.13
2022-12-15T12:44:26.639Z,39.22
2022-12-15T12:47:07.738Z,36.77
2022-12-15T12:49:45.651Z,40.83
2022-12-15T12:52:29.424Z,38.80
2022-12-15T12:55:09.524Z,37.35
2022-12-15T12:57:47.674Z,36.58
2022-12-15T13:00:29.101Z,37.08
2022-12-15T13:03:18.750Z,34.78
2022-12-15T13:05:54.608Z,35.40
2022-12-15T13:08:51.908Z,35.78
2022-12-15T13:11:58.054Z,31.63
2022-12-15T13:14:44.819Z,34.03
2022-12-15T13:17:29.833Z,29.50
2022-12-15T13:20:31.363Z,26.10
2022-12-15T13:23:37.963Z,28.77
2022-12-15T13:26:19.718Z,27.17
2022-12-15T13:28:54.138Z,30.00
2022-12-15T13:31:50.053Z,30.30
2022-12-15T13:34:29.960Z,30.83
2022-12-15T13:37:04.264Z,29.60
2022-12-15T13:40:00.185Z,29.73
2022-12-15T13:42:47.246Z,32.40
2022-12-15T13:45:50.248Z,31.80
2022-12-15T13:48:30.845Z,32.03
2022-12-15T13:51:24.502Z,32.63
2022-12-15T13:54:04.540Z,33.13
2022-12-15T13:56:50.845Z,31.67
2022-12-15T13:59:38.891Z,32.03
2022-12-15T14:02:27.456Z,29.60
2022-12-15T14:05:14.521Z,32.92
2022-12-15T14:07:54.606Z,32.95
2022-12-15T14:10:35.511Z,33.42
2022-12-15T14:13:16.205Z,32.95
2022-12-15T14:15:54.457Z,35.20
2022-12-15T14:18:32.492Z,33.13
2022-12-15T14:21:08.878Z,33.20
2022-12-15T14:24:04.056Z,33.55
2022-12-15T14:26:37.750Z,32.55
2022-12-15T14:29:13.213Z,33.85
2022-12-15T14:31:54.207Z,33.25
2022-12-15T14:34:32.444Z,34.92
2022-12-15T14:37:14.444Z,37.85
2022-12-15T14:39:50.611Z,36.97
2022-12-15T14:42:28.218Z,38.47
2022-12-15T14:45:01.887Z,37.85
2022-12-15T14:52:46.855Z,34.92
2022-12-15T14:55:33.358Z,41.40
2022-12-15T14:58:31.465Z,36.38
2022-12-15T15:01:07.428Z,37.90
2022-12-15T15:03:43.163Z,37.92
2022-12-15T15:06:25.244Z,38.65
2022-12-15T15:09:04.550Z,39.75
2022-12-15T15:11:43.205Z,39.58
2022-12-15T15:14:24.167Z,38.20
2022-12-15T15:17:07.548Z,39.60
2022-12-15T15:19:51.160Z,38.17
2022-12-15T15:22:42.178Z,36.38
2022-12-15T15:25:36.169Z,39.65
2022-12-15T15:28:25.923Z,39.90
2022-12-15T15:31:07.061Z,43.83
2022-12-15T15:33:40.578Z,48.60
2022-12-15T15:36:15.584Z,50.90
2022-12-15T15:38:49.259Z,48.38
2022-12-15T15:41:29.631Z,54.38
2022-12-15T15:44:03.801Z,59.03
2022-12-15T15:46:40.581Z,71.88
2022-12-15T15:49:17.776Z,59.17
2022-12-15T15:51:53.517Z,53.40
2022-12-15T15:54:34.729Z,56.20
2022-12-15T15:57:10.759Z,54.58
2022-12-15T15:59:44.836Z,54.20
2022-12-15T16:04:51.719Z,51.42
2022-12-15T16:07:29.341Z,60.15
2022-12-15T16:10:04.612Z,70.68
2022-12-15T16:12:43.697Z,71.13
2022-12-15T16:15:20.291Z,67.85
2022-12-15T16:17:54.757Z,67.28
2022-12-15T16:20:30.196Z,70.32
2022-12-15T16:23:08.135Z,75.97
2022-12-15T16:25:50.367Z,67.93
2022-12-15T16:28:26.785Z,66.40
2022-12-15T16:31:01.635Z,70.65
2022-12-15T16:33:36.280Z,71.88
2022-12-15T16:36:14.399Z,71.53
2022-12-15T16:38:49.266Z,71.97
2022-12-15T16:41:23.481Z,69.93
2022-12-15T16:43:56.954Z,75.25
2022-12-15T16:46:30.441Z,64.97
2022-12-15T16:49:06.323Z,65.97
2022-12-15T16:51:41.842Z,63.33
2022-12-15T16:54:20.975Z,63.20
2022-12-15T16:56:55.441Z,62.30
2022-12-15T16:59:33.940Z,65.15
2022-12-15T17:02:24.868Z,61.90
2022-12-15T17:04:59.200Z,65.85
2022-12-15T17:07:33.184Z,66.18
2022-12-15T17:12:42.021Z,66.90
2022-12-15T17:15:21.641Z,68.32
2022-12-15T17:17:56.407Z,59.63
2022-12-15T17:20:31.585Z,65.03
2022-12-15T17:23:09.138Z,71.10
2022-12-15T17:26:19.534Z,71.15
2022-12-15T17:28:40.976Z,73.93
2022-12-15T17:31:19.152Z,80.28
2022-12-15T17:33:52.904Z,87.07
2022-12-15T17:36:29.742Z,88.07
2022-12-15T17:39:11.905Z,81.60
2022-12-15T17:42:06.103Z,76.50
2022-12-15T17:44:40.112Z,69.32
2022-12-15T17:49:47.601Z,63.00
2022-12-15T17:55:00.115Z,62.10
2022-12-15T17:57:35.155Z,65.15
2022-12-15T18:00:17.568Z,65.13
2022-12-15T18:02:54.423Z,64.80
2022-12-15T18:05:30.347Z,68.40
2022-12-15T18:08:11.783Z,67.23
2022-12-15T18:10:46.564Z,69.10
2022-12-15T18:13:23.915Z,69.63
2022-12-15T18:15:57.941Z,72.87
2022-12-15T18:18:32.006Z,68.27
2022-12-15T18:21:16.968Z,73.97
2022-12-15T18:26:23.879Z,67.33
2022-12-15T18:28:58.926Z,66.97
2022-12-15T18:31:33.859Z,74.47
2022-12-15T18:34:13.192Z,78.27
2022-12-15T18:36:47.248Z,78.40
2022-12-15T18:41:58.954Z,68.10
2022-12-15T18:44:35.756Z,73.80
2022-12-15T18:47:16.432Z,78.43
2022-12-15T18:49:52.592Z,77.67
2022-12-15T18:52:31.506Z,77.63
2022-12-15T18:55:20.204Z,75.27
2022-12-15T18:57:54.220Z,75.80
2022-12-15T19:00:35.471Z,77.20
2022-12-15T19:03:12.345Z,81.27
2022-12-15T19:05:46.238Z,72.37
2022-12-15T19:08:25.815Z,70.53
2022-12-15T19:11:02.200Z,76.73
2022-12-15T19:13:37.830Z,73.07
2022-12-15T19:16:23.418Z,74.10
2022-12-15T19:19:17.370Z,72.70
2022-12-15T19:22:08.367Z,68.65
2022-12-15T19:24:57.193Z,72.07
2022-12-15T19:27:30.756Z,72.77
2022-12-15T19:30:15.184Z,75.78
2022-12-15T19:35:26.064Z,73.23
2022-12-15T19:38:02.560Z,75.60
2022-12-15T19:40:38.004Z,79.07
2022-12-15T19:43:15.770Z,82.57
2022-12-15T19:45:49.883Z,83.77
2022-12-15T19:48:27.338Z,84.07
2022-12-15T19:51:01.093Z,86.83
2022-12-15T19:53:36.533Z,89.57
2022-12-15T19:56:16.778Z,88.40
2022-12-15T19:58:50.800Z,90.47
2022-12-15T20:03:58.954Z,97.00
2022-12-15T20:06:32.816Z,96.53
2022-12-15T20:09:13.120Z,95.35
2022-12-15T20:11:48.337Z,98.90
2022-12-15T20:14:21.789Z,96.90
2022-12-15T20:16:56.626Z,87.93
2022-12-15T20:19:35.796Z,85.97
2022-12-15T20:22:16.874Z,79.13
2022-12-15T20:24:50.475Z,80.77
2022-12-15T20:27:32.827Z,79.53
2022-12-15T20:30:19.740Z,79.10
2022-12-15T20:32:53.964Z,80.63
2022-12-15T20:35:29.148Z,76.20
2022-12-15T20:38:04.476Z,77.67
2022-12-15T20:40:40.754Z,81.40
2022-12-15T20:43:17.372Z,78.87
2022-12-15T20:45:58.257Z,79.17
2022-12-15T20:48:38.006Z,78.70
2022-12-15T20:51:24.950Z,79.30
2022-12-15T20:54:02.733Z,73.47
2022-12-15T20:56:36.377Z,71.60
2022-12-15T20:59:10.640Z,72.32
2022-12-15T21:01:44.775Z,74.63
2022-12-15T21:04:26.895Z,71.93
2022-12-15T21:07:03.369Z,71.97
2022-12-15T21:09:36.915Z,70.87
2022-12-15T21:12:17.868Z,70.25
2022-12-15T21:14:51.529Z,69.87
2022-12-15T21:17:26.953Z,68.85
2022-12-15T21:20:00.410Z,69.80
2022-12-15T21:22:38.381Z,64.93
2022-12-15T21:25:23.708Z,66.33
2022-12-15T21:27:57.242Z,69.13
2022-12-15T21:30:32.649Z,69.88
2022-12-15T21:33:08.198Z,70.13
2022-12-15T21:35:43.389Z,75.67
2022-12-15T21:38:28.064Z,76.77
2022-12-15T21:41:05.476Z,79.03
2022-12-15T21:43:48.485Z,87.70
2022-12-15T21:46:28.963Z,77.90
2022-12-15T21:49:18.922Z,74.37
2022-12-15T21:51:54.962Z,78.00
2022-12-15T21:54:36.636Z,77.27
2022-12-15T21:57:12.524Z,77.83
2022-12-15T21:59:46.115Z,79.43
2022-12-15T22:02:28.158Z,80.43
2022-12-15T22:05:02.036Z,80.47
2022-12-15T22:07:35.595Z,83.93
2022-12-15T22:10:11.382Z,80.35
2022-12-15T22:12:59.385Z,77.10
2022-12-15T22:15:35.931Z,74.93
2022-12-15T22:18:14.753Z,74.17
2022-12-15T22:20:52.823Z,66.33
2022-12-15T22:23:26.429Z,62.93
2022-12-15T22:26:01.881Z,65.43
2022-12-15T22:28:35.991Z,62.70
2022-12-15T22:31:14.440Z,64.10
2022-12-15T22:33:51.108Z,65.43
2022-12-15T22:36:24.837Z,61.57
2022-12-15T22:39:01.687Z,60.47
2022-12-15T22:41:45.563Z,58.30
2022-12-15T22:44:22.575Z,57.03
2022-12-15T22:46:59.386Z,58.57
2022-12-15T22:49:39.935Z,58.57
2022-12-15T22:52:20.174Z,56.50
2022-12-15T22:54:54.966Z,54.23
2022-12-15T22:57:30.721Z,52.03
2022-12-15T23:00:08.359Z,48.90
2022-12-15T23:02:44.736Z,49.97
2022-12-15T23:05:20.875Z,51.13
2022-12-15T23:07:56.427Z,48.17
2022-12-15T23:10:47.115Z,45.20
2022-12-15T23:13:22.367Z,49.77
2022-12-15T23:16:13.399Z,51.77
2022-12-15T23:18:47.247Z,50.83
2022-12-15T23:21:23.577Z,49.47
2022-12-15T23:23:59.104Z,48.93
2022-12-15T23:26:32.710Z,47.73
2022-12-15T23:29:09.377Z,44.67
2022-12-15T23:31:43.350Z,42.53
2022-12-15T23:34:16.844Z,40.28
2022-12-15T23:36:50.371Z,40.97
2022-12-15T23:39:23.838Z,42.03
2022-12-15T23:41:57.358Z,43.10
2022-12-15T23:44:32.373Z,42.15
2022-12-15T23:47:06.403Z,42.67
2022-12-15T23:49:40.128Z,40.33
2022-12-15T23:52:13.751Z,41.22
2022-12-15T23:54:47.325Z,40.50
2022-12-15T23:57:20.858Z,38.05
2022-12-15T23:59:55.815Z,41.33
